createdAt,value
2022-12-06T00:01:35.384Z,14.23
2022-12-06T00:04:05.587Z,13.07
2022-12-06T00:06:36.538Z,12.55
2022-12-06T00:09:04.189Z,13.50
2022-12-06T00:11:36.700Z,14.45
2022-12-06T00:14:06.428Z,14.27
2022-12-06T00:16:34.782Z,13.60
2022-12-06T00:19:02.309Z,12.95
2022-12-06T00:21:34.774Z,12.57
2022-12-06T00:24:16.805Z,13.63
2022-12-06T00:26:45.707Z,13.48
2022-12-06T00:29:15.440Z,14.55
2022-12-06T00:31:42.565Z,13.32
2022-12-06T00:34:09.915Z,15.70
2022-12-06T00:36:39.495Z,14.02
2022-12-06T00:39:09.716Z,14.50
2022-12-06T00:41:36.584Z,13.85
2022-12-06T00:44:04.031Z,14.45
2022-12-06T00:46:32.309Z,14.18
2022-12-06T00:49:00.725Z,14.95
2022-12-06T00:51:30.432Z,14.63
2022-12-06T00:53:59.044Z,14.30
2022-12-06T00:56:26.654Z,13.85
2022-12-06T00:58:53.677Z,14.85
2022-12-06T01:01:23.735Z,14.45
2022-12-06T01:03:53.731Z,14.32
2022-12-06T01:06:23.151Z,13.82
2022-12-06T01:08:50.674Z,14.70
2022-12-06T01:11:17.630Z,15.82
2022-12-06T01:13:44.662Z,15.73
2022-12-06T01:16:15.679Z,13.75
2022-12-06T01:18:44.551Z,14.15
2022-12-06T01:21:14.449Z,13.82
2022-12-06T01:23:42.200Z,15.13
2022-12-06T01:26:17.332Z,13.68
2022-12-06T01:28:44.658Z,15.60
2022-12-06T01:31:12.533Z,15.45
2022-12-06T01:33:39.610Z,13.93
2022-12-06T01:36:07.386Z,14.80
2022-12-06T01:38:35.049Z,15.02
2022-12-06T01:41:02.558Z,14.48
2022-12-06T01:43:48.291Z,16.75
2022-12-06T01:46:26.486Z,16.40
2022-12-06T01:49:06.047Z,17.30
2022-12-06T01:51:33.727Z,15.18
2022-12-06T01:54:01.939Z,15.80
2022-12-06T01:56:29.152Z,15.15
2022-12-06T01:58:59.010Z,16.52
2022-12-06T02:01:28.555Z,16.20
2022-12-06T02:03:59.049Z,16.15
2022-12-06T02:06:26.378Z,14.93
2022-12-06T02:08:54.956Z,16.35
2022-12-06T02:11:21.839Z,16.80
2022-12-06T02:13:48.897Z,17.75
2022-12-06T02:16:48.457Z,17.92
2022-12-06T02:19:43.391Z,18.30
2022-12-06T02:22:33.319Z,19.02
2022-12-06T02:25:18.901Z,18.50
2022-12-06T02:28:30.130Z,19.88
2022-12-06T02:31:27.805Z,17.90
2022-12-06T02:34:03.085Z,16.80
2022-12-06T02:36:38.795Z,18.27
2022-12-06T02:39:18.602Z,18.42
2022-12-06T02:41:54.688Z,19.40
2022-12-06T02:44:29.499Z,18.50
2022-12-06T02:46:58.731Z,18.58
2022-12-06T02:49:28.822Z,19.17
2022-12-06T02:51:57.232Z,19.00
2022-12-06T02:54:25.627Z,19.55
2022-12-06T02:56:52.782Z,19.23
2022-12-06T02:59:19.717Z,18.65
2022-12-06T03:01:52.719Z,19.50
2022-12-06T03:04:47.672Z,17.80
2022-12-06T03:07:34.258Z,17.73
2022-12-06T03:10:30.653Z,18.23
2022-12-06T03:13:24.280Z,16.55
2022-12-06T03:16:01.770Z,15.38
2022-12-06T03:18:43.238Z,15.27
2022-12-06T03:21:23.723Z,16.65
2022-12-06T03:23:51.956Z,16.67
2022-12-06T03:26:27.644Z,15.93
2022-12-06T03:28:57.468Z,16.48
2022-12-06T03:31:25.447Z,16.55
2022-12-06T03:34:02.760Z,16.05
2022-12-06T03:36:31.290Z,15.88
2022-12-06T03:39:00.270Z,16.15
2022-12-06T03:41:38.248Z,16.00
2022-12-06T03:44:05.205Z,15.30
2022-12-06T03:46:36.652Z,16.35
2022-12-06T03:49:17.614Z,15.18
2022-12-06T03:51:45.622Z,15.85
2022-12-06T03:54:12.939Z,14.90
2022-12-06T03:56:39.934Z,15.32
2022-12-06T03:59:08.666Z,15.25
2022-12-06T04:01:36.307Z,14.35
2022-12-06T04:04:03.558Z,15.13
2022-12-06T04:06:30.765Z,14.32
2022-12-06T04:09:16.194Z,15.38
2022-12-06T04:11:43.136Z,15.52
2022-12-06T04:14:10.405Z,16.65
2022-12-06T04:16:55.923Z,14.75
2022-12-06T04:19:22.899Z,14.82
2022-12-06T04:22:08.243Z,15.82
2022-12-06T04:24:35.364Z,16.52
2022-12-06T04:27:20.868Z,15.93
2022-12-06T04:30:06.476Z,17.10
2022-12-06T04:32:52.336Z,16.33
2022-12-06T04:35:38.315Z,17.23
2022-12-06T04:38:24.671Z,17.17
2022-12-06T04:40:51.779Z,19.55
2022-12-06T04:43:37.459Z,16.60
2022-12-06T04:46:05.071Z,17.58
2022-12-06T04:48:32.600Z,17.20
2022-12-06T04:51:00.377Z,17.60
2022-12-06T04:53:27.898Z,18.67
2022-12-06T04:55:54.808Z,20.52
2022-12-06T04:58:22.165Z,20.55
2022-12-06T05:00:52.134Z,20.42
2022-12-06T05:03:19.646Z,23.02
2022-12-06T05:05:47.440Z,20.10
2022-12-06T05:08:15.577Z,24.45
2022-12-06T05:10:48.849Z,23.08
2022-12-06T05:13:17.681Z,21.33
2022-12-06T05:15:53.619Z,21.13
2022-12-06T05:18:21.126Z,21.95
2022-12-06T05:20:49.539Z,20.27
2022-12-06T05:23:16.845Z,22.95
2022-12-06T05:25:44.237Z,21.40
2022-12-06T05:28:12.002Z,23.45
2022-12-06T05:30:39.175Z,24.63
2022-12-06T05:33:06.672Z,23.33
2022-12-06T05:35:34.440Z,21.50
2022-12-06T05:38:01.613Z,21.08
2022-12-06T05:40:28.542Z,22.35
2022-12-06T05:42:55.995Z,22.63
2022-12-06T05:45:24.256Z,22.27
2022-12-06T05:47:51.828Z,24.52
2022-12-06T05:50:18.885Z,25.02
2022-12-06T05:52:47.060Z,24.77
2022-12-06T05:55:29.204Z,23.48
2022-12-06T05:57:59.428Z,25.52
2022-12-06T06:00:26.840Z,24.83
2022-12-06T06:02:54.212Z,22.83
2022-12-06T06:05:22.093Z,25.23
2022-12-06T06:07:49.794Z,23.70
2022-12-06T06:10:18.076Z,28.42
2022-12-06T06:12:46.455Z,27.27
2022-12-06T06:15:14.718Z,24.95
2022-12-06T06:17:44.409Z,24.75
2022-12-06T06:20:14.405Z,27.25
2022-12-06T06:22:42.884Z,31.58
2022-12-06T06:25:11.635Z,32.13
2022-12-06T06:27:39.313Z,25.70
2022-12-06T06:30:09.879Z,26.90
2022-12-06T06:32:38.055Z,26.60
2022-12-06T06:35:06.704Z,24.88
2022-12-06T06:37:37.173Z,24.20
2022-12-06T06:40:05.446Z,25.95
2022-12-06T06:42:33.417Z,25.88
2022-12-06T06:45:00.908Z,24.65
2022-12-06T06:47:31.108Z,25.35
2022-12-06T06:50:08.824Z,24.10
2022-12-06T06:52:46.123Z,24.45
2022-12-06T06:58:46.649Z,22.75
2022-12-06T07:04:28.319Z,20.50
2022-12-06T07:07:14.311Z,20.65
2022-12-06T07:13:03.507Z,21.25
2022-12-06T07:15:30.964Z,20.58
2022-12-06T07:18:07.430Z,19.55
2022-12-06T07:20:48.978Z,21.20
2022-12-06T07:23:23.172Z,20.33
2022-12-06T07:26:21.937Z,21.92
2022-12-06T07:28:53.076Z,21.23
2022-12-06T07:31:29.882Z,25.00
2022-12-06T07:34:03.511Z,19.58
2022-12-06T07:36:46.174Z,23.88
2022-12-06T07:39:19.486Z,22.38
2022-12-06T07:51:54.719Z,19.38
2022-12-06T07:54:34.028Z,23.40
2022-12-06T08:11:28.409Z,20.43
2022-12-06T08:13:56.606Z,17.35
2022-12-06T08:16:26.824Z,17.08
2022-12-06T08:22:17.713Z,19.25
2022-12-06T08:24:48.046Z,18.45
2022-12-06T08:27:16.355Z,16.85
2022-12-06T08:29:47.610Z,16.55
2022-12-06T08:39:00.291Z,19.08
2022-12-06T08:41:49.231Z,16.40
2022-12-06T08:44:44.606Z,17.60
2022-12-06T08:47:31.046Z,15.48
2022-12-06T08:51:35.398Z,16.85
2022-12-06T08:53:09.978Z,16.55
2022-12-06T08:55:56.186Z,16.35
2022-12-06T08:59:00.763Z,15.88
2022-12-06T09:01:37.460Z,15.75
2022-12-06T09:04:54.929Z,16.50
2022-12-06T09:10:27.901Z,18.23
2022-12-06T09:12:56.561Z,20.55
2022-12-06T09:15:23.821Z,18.15
2022-12-06T09:18:11.956Z,18.30
2022-12-06T09:20:48.233Z,17.25
2022-12-06T09:23:50.841Z,17.90
2022-12-06T09:26:50.241Z,17.02
2022-12-06T09:29:20.428Z,17.77
2022-12-06T09:32:21.279Z,17.13
2022-12-06T09:35:15.260Z,18.35
2022-12-06T09:48:49.383Z,16.30
2022-12-06T10:03:44.949Z,15.68
2022-12-06T10:47:04.136Z,15.68
2022-12-06T10:52:52.817Z,14.02
2022-12-06T10:55:34.305Z,14.82
2022-12-06T10:58:39.799Z,15.20
2022-12-06T11:01:39.522Z,16.40
2022-12-06T11:10:43.832Z,14.60
2022-12-06T11:16:40.080Z,14.45
2022-12-06T11:19:33.634Z,17.02
2022-12-06T11:22:33.162Z,14.48
2022-12-06T11:28:52.558Z,15.20
2022-12-06T11:35:18.527Z,14.73
2022-12-06T11:39:12.169Z,14.73
2022-12-06T11:41:44.633Z,15.35
2022-12-06T11:48:59.078Z,15.05
2022-12-06T11:51:08.474Z,13.57
2022-12-06T11:54:28.427Z,15.43
2022-12-06T11:57:22.397Z,16.88
2022-12-06T12:00:32.043Z,13.68
2022-12-06T12:03:04.755Z,15.10
2022-12-06T12:05:41.903Z,15.38
2022-12-06T12:08:32.822Z,16.52
2022-12-06T12:11:10.437Z,15.32
2022-12-06T12:13:49.122Z,15.13
2022-12-06T12:16:37.592Z,15.73
2022-12-06T12:19:33.787Z,13.93
2022-12-06T12:23:21.217Z,14.38
2022-12-06T12:26:16.248Z,14.88
2022-12-06T12:28:54.791Z,14.38
2022-12-06T12:39:12.873Z,14.13
2022-12-06T12:41:56.336Z,14.80
2022-12-06T12:44:40.005Z,14.35
2022-12-06T12:47:21.658Z,14.32
2022-12-06T12:50:30.510Z,15.27
2022-12-06T12:52:58.552Z,14.52
2022-12-06T12:55:39.132Z,14.45
2022-12-06T12:58:12.029Z,13.48
2022-12-06T13:00:45.478Z,14.40
2022-12-06T13:03:49.640Z,14.02
2022-12-06T13:06:29.278Z,13.90
2022-12-06T13:09:02.540Z,14.45
2022-12-06T13:11:33.238Z,13.40
2022-12-06T13:14:10.178Z,15.10
2022-12-06T13:16:40.523Z,14.63
2022-12-06T13:19:53.396Z,15.65
2022-12-06T13:22:47.127Z,14.70
2022-12-06T13:25:15.629Z,14.35
2022-12-06T13:27:50.465Z,14.25
2022-12-06T13:30:17.815Z,15.40
2022-12-06T13:32:56.543Z,16.20
2022-12-06T13:35:43.436Z,14.95
2022-12-06T13:38:26.352Z,13.45
2022-12-06T13:41:15.221Z,15.70
2022-12-06T13:43:46.588Z,16.20
2022-12-06T13:46:28.088Z,15.65
2022-12-06T13:49:00.066Z,16.73
2022-12-06T13:51:34.198Z,14.60
2022-12-06T13:54:07.342Z,14.73
2022-12-06T13:56:34.648Z,14.27
2022-12-06T13:59:06.685Z,14.38
2022-12-06T14:01:40.029Z,14.63
2022-12-06T14:07:05.374Z,15.40
2022-12-06T14:09:48.606Z,16.73
2022-12-06T14:12:22.388Z,16.85
2022-12-06T14:15:02.195Z,17.20
2022-12-06T14:18:04.201Z,16.52
2022-12-06T14:23:41.684Z,16.55
2022-12-06T14:26:15.802Z,14.93
2022-12-06T14:28:51.859Z,18.35
2022-12-06T14:31:31.940Z,17.20
2022-12-06T14:34:00.129Z,17.00
2022-12-06T14:36:35.223Z,17.55
2022-12-06T14:39:09.914Z,15.60
2022-12-06T14:42:00.508Z,16.95
2022-12-06T14:44:40.889Z,16.42
2022-12-06T14:47:10.394Z,16.30
2022-12-06T14:49:56.947Z,14.40
2022-12-06T14:52:31.553Z,19.75
2022-12-06T14:58:17.207Z,19.88
2022-12-06T15:00:59.847Z,18.70
2022-12-06T15:03:36.225Z,17.23
2022-12-06T15:06:23.392Z,18.92
2022-12-06T15:09:04.538Z,19.02
2022-12-06T15:11:59.340Z,20.38
2022-12-06T15:14:38.180Z,20.33
2022-12-06T15:17:15.804Z,19.88
2022-12-06T15:19:56.532Z,21.73
2022-12-06T15:22:28.214Z,20.55
2022-12-06T15:25:10.024Z,22.58
2022-12-06T15:27:41.233Z,21.85
2022-12-06T15:30:10.188Z,21.48
2022-12-06T15:35:23.224Z,21.38
2022-12-06T15:37:52.264Z,18.73
2022-12-06T15:40:24.944Z,18.70
2022-12-06T15:43:02.493Z,21.58
2022-12-06T15:45:39.719Z,19.15
2022-12-06T15:51:04.176Z,21.08
2022-12-06T15:53:35.735Z,20.67
2022-12-06T15:56:10.991Z,20.80
2022-12-06T15:58:41.125Z,19.02
2022-12-06T16:01:36.335Z,19.95
2022-12-06T16:04:23.226Z,21.13
2022-12-06T16:09:41.951Z,22.85
2022-12-06T16:12:13.081Z,20.48
2022-12-06T16:14:40.767Z,20.70
2022-12-06T16:17:08.727Z,18.35
2022-12-06T16:19:57.834Z,18.40
2022-12-06T16:22:45.877Z,20.70
2022-12-06T16:25:20.138Z,24.70
2022-12-06T16:27:49.586Z,20.35
2022-12-06T16:30:19.332Z,18.67
2022-12-06T16:32:49.963Z,19.58
2022-12-06T16:35:17.510Z,23.05
2022-12-06T16:37:45.047Z,21.92
2022-12-06T16:40:25.562Z,21.65
2022-12-06T16:42:57.143Z,20.60
2022-12-06T16:45:25.838Z,20.23
2022-12-06T16:47:53.363Z,18.77
2022-12-06T16:50:30.553Z,20.15
2022-12-06T16:52:59.740Z,24.38
2022-12-06T16:55:29.580Z,23.38
2022-12-06T16:57:57.911Z,20.23
2022-12-06T17:00:25.239Z,20.45
2022-12-06T17:02:53.889Z,19.65
2022-12-06T17:05:28.391Z,21.60
2022-12-06T17:07:56.125Z,21.30
2022-12-06T17:10:25.295Z,21.38
2022-12-06T17:12:52.982Z,20.95
2022-12-06T17:15:21.762Z,18.73
2022-12-06T17:17:50.097Z,20.42
2022-12-06T17:20:20.498Z,20.45
2022-12-06T17:22:49.720Z,18.90
2022-12-06T17:25:19.569Z,19.33
2022-12-06T17:27:48.885Z,21.00
2022-12-06T17:30:23.682Z,22.25
2022-12-06T17:32:53.873Z,18.88
2022-12-06T17:35:25.350Z,20.60
2022-12-06T17:37:54.605Z,21.60
2022-12-06T17:40:30.133Z,17.52
2022-12-06T17:43:01.455Z,21.38
2022-12-06T17:45:30.594Z,22.35
2022-12-06T17:47:59.004Z,20.30
2022-12-06T17:50:27.265Z,21.80
2022-12-06T17:53:00.114Z,19.27
2022-12-06T17:55:27.507Z,22.00
2022-12-06T17:57:55.399Z,23.20
2022-12-06T18:00:23.135Z,18.45
2022-12-06T18:02:52.499Z,19.20
2022-12-06T18:05:20.934Z,19.65
2022-12-06T18:07:48.480Z,19.75
2022-12-06T18:10:16.188Z,20.40
2022-12-06T18:12:43.575Z,19.63
2022-12-06T18:15:32.782Z,24.80
2022-12-06T18:18:00.080Z,26.67
2022-12-06T18:20:28.109Z,29.17
2022-12-06T18:22:56.182Z,25.25
2022-12-06T18:25:25.382Z,25.85
2022-12-06T18:27:56.601Z,25.13
2022-12-06T18:30:25.389Z,23.67
2022-12-06T18:32:52.711Z,25.10
2022-12-06T18:35:19.963Z,23.35
2022-12-06T18:37:47.246Z,26.17
2022-12-06T18:40:17.321Z,21.48
2022-12-06T18:42:45.975Z,24.27
2022-12-06T18:45:13.582Z,25.35
2022-12-06T18:47:40.787Z,22.17
2022-12-06T18:50:10.319Z,23.45
2022-12-06T18:52:39.077Z,21.58
2022-12-06T18:55:09.717Z,20.35
2022-12-06T18:57:38.941Z,20.48
2022-12-06T19:00:13.932Z,23.10
2022-12-06T19:02:41.382Z,19.80
2022-12-06T19:05:09.445Z,20.27
2022-12-06T19:07:42.970Z,22.25
2022-12-06T19:10:11.646Z,20.88
2022-12-06T19:12:39.811Z,21.60
2022-12-06T19:15:08.899Z,24.83
2022-12-06T19:17:36.192Z,22.08
2022-12-06T19:20:04.359Z,21.00
2022-12-06T19:22:31.782Z,21.95
2022-12-06T19:24:58.730Z,24.38
2022-12-06T19:27:26.384Z,22.13
2022-12-06T19:29:54.428Z,20.73
2022-12-06T19:32:22.579Z,22.15
2022-12-06T19:34:50.854Z,19.73
2022-12-06T19:37:18.632Z,21.80
2022-12-06T19:39:46.942Z,22.30
2022-12-06T19:42:33.600Z,21.23
2022-12-06T19:45:00.929Z,21.77
2022-12-06T19:47:28.111Z,22.85
2022-12-06T19:49:56.931Z,22.75
2022-12-06T19:52:30.645Z,21.73
2022-12-06T19:54:59.086Z,25.88
2022-12-06T19:57:27.086Z,23.63
2022-12-06T19:59:56.025Z,23.15
2022-12-06T20:02:23.248Z,21.33
2022-12-06T20:04:51.219Z,23.27
2022-12-06T20:07:18.827Z,21.17
2022-12-06T20:09:48.513Z,20.77
2022-12-06T20:12:15.557Z,22.83
2022-12-06T20:14:46.128Z,22.25
2022-12-06T20:17:21.227Z,21.52
2022-12-06T20:19:50.663Z,21.05
2022-12-06T20:22:22.856Z,22.17
2022-12-06T20:24:50.275Z,21.23
2022-12-06T20:27:17.570Z,20.73
2022-12-06T20:29:44.738Z,24.95
2022-12-06T20:32:11.757Z,25.30
2022-12-06T20:34:39.565Z,13.73
2022-12-06T20:37:07.241Z,23.17
2022-12-06T20:39:36.261Z,23.50
2022-12-06T20:42:06.055Z,24.88
2022-12-06T20:44:33.807Z,21.17
2022-12-06T20:47:02.536Z,22.40
2022-12-06T20:49:29.868Z,24.38
2022-12-06T20:52:00.382Z,22.42
2022-12-06T20:54:28.554Z,24.42
2022-12-06T20:56:55.555Z,22.33
2022-12-06T20:59:22.741Z,20.35
2022-12-06T21:01:50.594Z,20.95
2022-12-06T21:04:18.040Z,20.42
2022-12-06T21:06:45.499Z,18.75
2022-12-06T21:09:12.684Z,17.85
2022-12-06T21:11:40.067Z,18.02
2022-12-06T21:14:07.524Z,18.58
2022-12-06T21:16:35.942Z,18.30
2022-12-06T21:19:08.144Z,17.27
2022-12-06T21:21:38.151Z,17.27
2022-12-06T21:24:11.931Z,15.48
2022-12-06T21:26:39.372Z,15.75
2022-12-06T21:29:06.805Z,14.90
2022-12-06T21:31:37.024Z,16.48
2022-12-06T21:34:04.799Z,16.63
2022-12-06T21:36:32.485Z,16.58
2022-12-06T21:39:00.089Z,16.80
2022-12-06T21:41:27.546Z,16.60
2022-12-06T21:43:55.735Z,17.02
2022-12-06T21:46:26.342Z,16.08
2022-12-06T21:49:02.289Z,15.27
2022-12-06T21:51:32.022Z,15.57
2022-12-06T21:53:59.768Z,15.18
2022-12-06T21:56:29.220Z,15.18
2022-12-06T21:58:56.604Z,14.38
2022-12-06T22:01:28.248Z,14.52
2022-12-06T22:03:57.780Z,14.68
2022-12-06T22:06:25.675Z,14.65
2022-12-06T22:09:04.369Z,15.38
2022-12-06T22:11:32.031Z,14.63
2022-12-06T22:14:00.483Z,15.48
2022-12-06T22:16:28.842Z,12.73
2022-12-06T22:18:56.041Z,13.43
2022-12-06T22:21:25.874Z,16.38
2022-12-06T22:23:53.482Z,15.63
2022-12-06T22:26:22.587Z,13.70
2022-12-06T22:28:50.572Z,13.52
2022-12-06T22:31:23.555Z,14.90
2022-12-06T22:33:51.516Z,15.05
2022-12-06T22:36:20.481Z,14.38
2022-12-06T22:38:52.248Z,12.93
2022-12-06T22:41:20.179Z,13.93
2022-12-06T22:43:52.029Z,14.52
2022-12-06T22:46:20.323Z,13.45
2022-12-06T22:48:47.720Z,13.65
2022-12-06T22:51:20.240Z,13.68
2022-12-06T22:53:52.200Z,14.13
2022-12-06T22:56:19.095Z,14.02
2022-12-06T22:58:46.028Z,12.30
2022-12-06T23:01:16.982Z,12.70
2022-12-06T23:03:50.011Z,13.23
2022-12-06T23:06:19.854Z,12.50
2022-12-06T23:08:47.402Z,12.05
2022-12-06T23:11:18.087Z,12.73
2022-12-06T23:13:45.336Z,13.52
2022-12-06T23:16:14.976Z,12.98
2022-12-06T23:18:42.504Z,11.70
2022-12-06T23:21:22.051Z,11.98
2022-12-06T23:23:54.387Z,12.95
2022-12-06T23:26:27.041Z,12.07
2022-12-06T23:28:54.415Z,11.63
2022-12-06T23:31:26.732Z,12.15
2022-12-06T23:34:01.069Z,12.65
2022-12-06T23:36:30.035Z,10.98
2022-12-06T23:38:57.222Z,11.02
2022-12-06T23:41:26.847Z,10.93
2022-12-06T23:43:55.360Z,11.48
2022-12-06T23:46:24.851Z,11.73
2022-12-06T23:48:52.861Z,10.82
2022-12-06T23:51:31.919Z,10.85
2022-12-06T23:54:00.301Z,11.30
2022-12-06T23:56:35.868Z,9.60
2022-12-06T23:59:05.137Z,11.45
